sensor_id;sensor_type;location;lat;lon;timestamp;temperature;humidity
28863;DHT22;15994;51.796;13.006;2023-06-26T00:01:24;20.40;99.90
28863;DHT22;15994;51.796;13.006;2023-06-26T00:03:50;20.50;99.90
28863;DHT22;15994;51.796;13.006;2023-06-26T00:06:17;20.30;99.90
28863;DHT22;15994;51.796;13.006;2023-06-26T00:08:43;20.40;99.90
28863;DHT22;15994;51.796;13.006;2023-06-26T00:11:10;20.70;99.90
28863;DHT22;15994;51.796;13.006;2023-06-26T00:13:37;20.30;99.90
28863;DHT22;15994;51.796;13.006;2023-06-26T00:16:03;20.20;99.90
28863;DHT22;15994;51.796;13.006;2023-06-26T00:18:30;20.20;99.90
28863;DHT22;15994;51.796;13.006;2023-06-26T00:20:56;20.40;99.90
28863;DHT22;15994;51.796;13.006;2023-06-26T00:23:23;20.30;99.90
28863;DHT22;15994;51.796;13.006;2023-06-26T00:25:49;20.20;99.90
28863;DHT22;15994;51.796;13.006;2023-06-26T00:28:16;20.20;99.90
28863;DHT22;15994;51.796;13.006;2023-06-26T00:30:42;20.30;99.90
28863;DHT22;15994;51.796;13.006;2023-06-26T00:33:08;20.30;99.90
28863;DHT22;15994;51.796;13.006;2023-06-26T00:35:35;20.10;99.90
28863;DHT22;15994;51.796;13.006;2023-06-26T00:38:01;20.20;99.90
28863;DHT22;15994;51.796;13.006;2023-06-26T00:40:28;20.10;99.90
28863;DHT22;15994;51.796;13.006;2023-06-26T00:42:54;20.20;99.90
28863;DHT22;15994;51.796;13.006;2023-06-26T00:45:21;19.90;99.90
28863;DHT22;15994;51.796;13.006;2023-06-26T00:47:48;19.90;99.90
28863;DHT22;15994;51.796;13.006;2023-06-26T00:50:14;19.80;99.90
28863;DHT22;15994;51.796;13.006;2023-06-26T00:52:42;19.80;99.90
28863;DHT22;15994;51.796;13.006;2023-06-26T00:55:09;19.70;99.90
28863;DHT22;15994;51.796;13.006;2023-06-26T00:57:35;19.50;99.90
28863;DHT22;15994;51.796;13.006;2023-06-26T01:00:03;19.40;99.90
28863;DHT22;15994;51.796;13.006;2023-06-26T01:02:30;19.40;99.90
28863;DHT22;15994;51.796;13.006;2023-06-26T01:04:59;19.40;99.90
28863;DHT22;15994;51.796;13.006;2023-06-26T01:07:26;19.70;99.90
28863;DHT22;15994;51.796;13.006;2023-06-26T01:09:53;20.00;99.90
28863;DHT22;15994;51.796;13.006;2023-06-26T01:12:19;20.10;99.90
28863;DHT22;15994;51.796;13.006;2023-06-26T01:14:46;20.20;99.90
28863;DHT22;15994;51.796;13.006;2023-06-26T01:17:12;19.80;99.90
28863;DHT22;15994;51.796;13.006;2023-06-26T01:19:40;19.60;99.90
28863;DHT22;15994;51.796;13.006;2023-06-26T01:24:42;19.70;99.90
28863;DHT22;15994;51.796;13.006;2023-06-26T01:27:11;19.40;99.90
28863;DHT22;15994;51.796;13.006;2023-06-26T01:29:38;19.20;99.90
28863;DHT22;15994;51.796;13.006;2023-06-26T01:32:05;19.00;99.90
28863;DHT22;15994;51.796;13.006;2023-06-26T01:34:31;19.00;99.90
28863;DHT22;15994;51.796;13.006;2023-06-26T01:36:58;19.30;99.90
28863;DHT22;15994;51.796;13.006;2023-06-26T01:39:24;19.30;99.90
28863;DHT22;15994;51.796;13.006;2023-06-26T01:41:51;19.20;99.90
28863;DHT22;15994;51.796;13.006;2023-06-26T01:44:36;19.00;99.90
28863;DHT22;15994;51.796;13.006;2023-06-26T01:47:07;18.80;99.90
28863;DHT22;15994;51.796;13.006;2023-06-26T01:52:12;18.80;99.90
28863;DHT22;15994;51.796;13.006;2023-06-26T01:54:47;18.90;99.90
28863;DHT22;15994;51.796;13.006;2023-06-26T01:57:14;19.00;99.90
28863;DHT22;15994;51.796;13.006;2023-06-26T01:59:44;18.90;99.90
28863;DHT22;15994;51.796;13.006;2023-06-26T02:02:11;19.20;99.90
28863;DHT22;15994;51.796;13.006;2023-06-26T02:04:38;18.90;99.90
28863;DHT22;15994;51.796;13.006;2023-06-26T02:07:04;18.90;99.90
28863;DHT22;15994;51.796;13.006;2023-06-26T02:09:30;18.90;99.90
28863;DHT22;15994;51.796;13.006;2023-06-26T02:11:57;19.70;99.90
28863;DHT22;15994;51.796;13.006;2023-06-26T02:14:23;19.90;99.90
28863;DHT22;15994;51.796;13.006;2023-06-26T02:16:50;20.50;99.90
28863;DHT22;15994;51.796;13.006;2023-06-26T02:19:16;20.80;99.90
28863;DHT22;15994;51.796;13.006;2023-06-26T02:21:49;21.40;99.90
28863;DHT22;15994;51.796;13.006;2023-06-26T02:24:16;21.20;99.90
28863;DHT22;15994;51.796;13.006;2023-06-26T02:26:42;20.80;99.90
28863;DHT22;15994;51.796;13.006;2023-06-26T02:29:09;21.30;99.90
28863;DHT22;15994;51.796;13.006;2023-06-26T02:31:35;21.60;99.90
28863;DHT22;15994;51.796;13.006;2023-06-26T02:34:02;21.50;99.90
28863;DHT22;15994;51.796;13.006;2023-06-26T02:36:28;21.00;99.90
28863;DHT22;15994;51.796;13.006;2023-06-26T02:38:54;21.00;99.90
28863;DHT22;15994;51.796;13.006;2023-06-26T02:41:21;21.10;99.90
28863;DHT22;15994;51.796;13.006;2023-06-26T02:43:47;21.80;99.90
28863;DHT22;15994;51.796;13.006;2023-06-26T02:46:14;21.50;99.90
28863;DHT22;15994;51.796;13.006;2023-06-26T02:48:40;22.00;99.90
28863;DHT22;15994;51.796;13.006;2023-06-26T02:51:07;22.10;99.90
28863;DHT22;15994;51.796;13.006;2023-06-26T02:53:33;21.10;99.90
28863;DHT22;15994;51.796;13.006;2023-06-26T02:56:00;20.30;99.90
28863;DHT22;15994;51.796;13.006;2023-06-26T02:58:27;20.70;99.90
28863;DHT22;15994;51.796;13.006;2023-06-26T03:00:53;20.50;99.90
28863;DHT22;15994;51.796;13.006;2023-06-26T03:03:21;20.70;99.90
28863;DHT22;15994;51.796;13.006;2023-06-26T03:05:48;20.20;99.90
28863;DHT22;15994;51.796;13.006;2023-06-26T03:08:14;19.90;99.90
28863;DHT22;15994;51.796;13.006;2023-06-26T03:10:41;21.30;99.90
28863;DHT22;15994;51.796;13.006;2023-06-26T03:13:07;21.90;99.90
28863;DHT22;15994;51.796;13.006;2023-06-26T03:15:34;22.20;99.90
28863;DHT22;15994;51.796;13.006;2023-06-26T03:18:01;22.50;99.90
28863;DHT22;15994;51.796;13.006;2023-06-26T03:20:27;22.10;99.90
28863;DHT22;15994;51.796;13.006;2023-06-26T03:22:53;21.50;99.90
28863;DHT22;15994;51.796;13.006;2023-06-26T03:25:20;21.60;99.90
28863;DHT22;15994;51.796;13.006;2023-06-26T03:27:46;22.30;99.90
28863;DHT22;15994;51.796;13.006;2023-06-26T03:30:13;22.80;99.90
28863;DHT22;15994;51.796;13.006;2023-06-26T03:32:39;23.10;99.90
28863;DHT22;15994;51.796;13.006;2023-06-26T03:35:06;23.30;99.90
28863;DHT22;15994;51.796;13.006;2023-06-26T03:37:32;23.40;99.90
28863;DHT22;15994;51.796;13.006;2023-06-26T03:39:59;23.40;99.90
28863;DHT22;15994;51.796;13.006;2023-06-26T03:42:25;23.40;99.90
28863;DHT22;15994;51.796;13.006;2023-06-26T03:44:52;23.40;99.90
28863;DHT22;15994;51.796;13.006;2023-06-26T03:47:18;23.40;99.90
28863;DHT22;15994;51.796;13.006;2023-06-26T03:49:45;23.30;99.90
28863;DHT22;15994;51.796;13.006;2023-06-26T03:52:11;23.00;99.90
28863;DHT22;15994;51.796;13.006;2023-06-26T03:54:37;22.90;99.90
28863;DHT22;15994;51.796;13.006;2023-06-26T03:57:04;22.50;99.90
28863;DHT22;15994;51.796;13.006;2023-06-26T03:59:31;22.00;99.90
28863;DHT22;15994;51.796;13.006;2023-06-26T04:01:57;22.70;99.90
28863;DHT22;15994;51.796;13.006;2023-06-26T04:04:23;22.90;99.90
28863;DHT22;15994;51.796;13.006;2023-06-26T04:06:50;23.00;99.90
28863;DHT22;15994;51.796;13.006;2023-06-26T04:09:16;22.20;99.90
28863;DHT22;15994;51.796;13.006;2023-06-26T04:11:44;22.60;99.90
28863;DHT22;15994;51.796;13.006;2023-06-26T04:14:11;22.90;99.90
28863;DHT22;15994;51.796;13.006;2023-06-26T04:16:38;23.00;99.90
28863;DHT22;15994;51.796;13.006;2023-06-26T04:19:04;23.10;99.90
28863;DHT22;15994;51.796;13.006;2023-06-26T04:21:31;23.10;99.90
28863;DHT22;15994;51.796;13.006;2023-06-26T04:23:57;23.10;99.90
28863;DHT22;15994;51.796;13.006;2023-06-26T04:26:24;23.10;99.90
28863;DHT22;15994;51.796;13.006;2023-06-26T04:28:50;22.80;99.90
28863;DHT22;15994;51.796;13.006;2023-06-26T04:31:16;23.00;99.90
28863;DHT22;15994;51.796;13.006;2023-06-26T04:33:43;23.10;99.90
28863;DHT22;15994;51.796;13.006;2023-06-26T04:36:09;23.10;99.90
28863;DHT22;15994;51.796;13.006;2023-06-26T04:38:37;23.10;99.90
28863;DHT22;15994;51.796;13.006;2023-06-26T04:41:04;23.10;99.90
28863;DHT22;15994;51.796;13.006;2023-06-26T04:43:30;23.10;99.90
28863;DHT22;15994;51.796;13.006;2023-06-26T04:45:57;23.20;99.90
28863;DHT22;15994;51.796;13.006;2023-06-26T04:48:23;23.20;99.90
28863;DHT22;15994;51.796;13.006;2023-06-26T04:50:53;23.20;99.90
28863;DHT22;15994;51.796;13.006;2023-06-26T04:53:20;23.20;99.90
28863;DHT22;15994;51.796;13.006;2023-06-26T04:55:49;23.20;99.90
28863;DHT22;15994;51.796;13.006;2023-06-26T04:58:15;23.20;99.90
28863;DHT22;15994;51.796;13.006;2023-06-26T05:00:42;23.20;99.90
28863;DHT22;15994;51.796;13.006;2023-06-26T05:03:09;23.20;99.90
28863;DHT22;15994;51.796;13.006;2023-06-26T05:05:35;23.30;99.90
28863;DHT22;15994;51.796;13.006;2023-06-26T05:08:13;23.30;99.90
28863;DHT22;15994;51.796;13.006;2023-06-26T05:10:39;23.30;99.90
28863;DHT22;15994;51.796;13.006;2023-06-26T05:13:06;23.30;99.90
28863;DHT22;15994;51.796;13.006;2023-06-26T05:15:32;23.30;99.90
28863;DHT22;15994;51.796;13.006;2023-06-26T05:17:59;23.30;99.90
28863;DHT22;15994;51.796;13.006;2023-06-26T05:20:25;23.30;99.90
28863;DHT22;15994;51.796;13.006;2023-06-26T05:22:52;23.30;99.90
28863;DHT22;15994;51.796;13.006;2023-06-26T05:25:18;23.30;99.90
28863;DHT22;15994;51.796;13.006;2023-06-26T05:27:46;23.40;99.90
28863;DHT22;15994;51.796;13.006;2023-06-26T05:30:13;23.30;99.90
28863;DHT22;15994;51.796;13.006;2023-06-26T05:32:40;23.40;99.90
28863;DHT22;15994;51.796;13.006;2023-06-26T05:35:06;23.40;99.90
28863;DHT22;15994;51.796;13.006;2023-06-26T05:37:33;23.50;99.90
28863;DHT22;15994;51.796;13.006;2023-06-26T05:40:00;23.50;99.90
28863;DHT22;15994;51.796;13.006;2023-06-26T05:42:28;23.50;99.90
28863;DHT22;15994;51.796;13.006;2023-06-26T05:44:55;23.40;99.90
28863;DHT22;15994;51.796;13.006;2023-06-26T05:47:22;23.50;99.90
28863;DHT22;15994;51.796;13.006;2023-06-26T05:49:48;23.60;99.90
28863;DHT22;15994;51.796;13.006;2023-06-26T05:52:15;23.50;99.90
28863;DHT22;15994;51.796;13.006;2023-06-26T05:54:42;23.60;99.90
28863;DHT22;15994;51.796;13.006;2023-06-26T05:57:08;23.60;99.90
28863;DHT22;15994;51.796;13.006;2023-06-26T05:59:35;23.70;99.90
28863;DHT22;15994;51.796;13.006;2023-06-26T06:02:03;23.70;99.90
28863;DHT22;15994;51.796;13.006;2023-06-26T06:04:29;23.60;99.90
28863;DHT22;15994;51.796;13.006;2023-06-26T06:06:56;23.60;99.90
28863;DHT22;15994;51.796;13.006;2023-06-26T06:09:22;23.60;99.90
28863;DHT22;15994;51.796;13.006;2023-06-26T06:11:50;23.70;99.90
28863;DHT22;15994;51.796;13.006;2023-06-26T06:14:16;23.70;99.90
28863;DHT22;15994;51.796;13.006;2023-06-26T06:16:42;23.80;99.90
28863;DHT22;15994;51.796;13.006;2023-06-26T06:19:09;23.80;99.90
28863;DHT22;15994;51.796;13.006;2023-06-26T06:21:38;23.70;99.90
28863;DHT22;15994;51.796;13.006;2023-06-26T06:24:04;23.70;99.90
28863;DHT22;15994;51.796;13.006;2023-06-26T06:26:32;23.70;99.90
28863;DHT22;15994;51.796;13.006;2023-06-26T06:28:58;23.60;99.90
28863;DHT22;15994;51.796;13.006;2023-06-26T06:31:25;23.50;99.90
28863;DHT22;15994;51.796;13.006;2023-06-26T06:33:56;23.70;99.90
28863;DHT22;15994;51.796;13.006;2023-06-26T06:36:22;23.60;99.90
28863;DHT22;15994;51.796;13.006;2023-06-26T06:38:49;23.60;99.90
28863;DHT22;15994;51.796;13.006;2023-06-26T06:41:15;23.60;99.90
28863;DHT22;15994;51.796;13.006;2023-06-26T06:43:42;23.70;99.90
28863;DHT22;15994;51.796;13.006;2023-06-26T06:46:08;23.70;99.90
28863;DHT22;15994;51.796;13.006;2023-06-26T06:48:35;23.70;99.90
28863;DHT22;15994;51.796;13.006;2023-06-26T06:51:01;24.00;99.90
28863;DHT22;15994;51.796;13.006;2023-06-26T06:53:28;24.00;99.90
28863;DHT22;15994;51.796;13.006;2023-06-26T06:55:55;24.00;99.90
28863;DHT22;15994;51.796;13.006;2023-06-26T06:58:22;24.00;99.90
28863;DHT22;15994;51.796;13.006;2023-06-26T07:00:48;24.00;99.90
28863;DHT22;15994;51.796;13.006;2023-06-26T07:03:17;23.90;99.90
28863;DHT22;15994;51.796;13.006;2023-06-26T07:05:43;24.00;99.90
28863;DHT22;15994;51.796;13.006;2023-06-26T07:08:10;24.00;99.90
28863;DHT22;15994;51.796;13.006;2023-06-26T07:10:36;24.10;99.90
28863;DHT22;15994;51.796;13.006;2023-06-26T07:13:03;24.10;99.90
28863;DHT22;15994;51.796;13.006;2023-06-26T07:15:30;24.10;99.90
28863;DHT22;15994;51.796;13.006;2023-06-26T07:17:57;24.10;99.90
28863;DHT22;15994;51.796;13.006;2023-06-26T07:20:23;24.20;99.90
28863;DHT22;15994;51.796;13.006;2023-06-26T07:22:52;24.30;99.90
28863;DHT22;15994;51.796;13.006;2023-06-26T07:25:19;24.30;99.90
28863;DHT22;15994;51.796;13.006;2023-06-26T07:27:45;24.40;99.90
28863;DHT22;15994;51.796;13.006;2023-06-26T07:30:12;24.40;99.90
28863;DHT22;15994;51.796;13.006;2023-06-26T07:32:38;24.40;99.90
28863;DHT22;15994;51.796;13.006;2023-06-26T07:35:05;24.50;99.90
28863;DHT22;15994;51.796;13.006;2023-06-26T07:37:32;24.50;99.90
28863;DHT22;15994;51.796;13.006;2023-06-26T07:39:58;24.60;99.90
28863;DHT22;15994;51.796;13.006;2023-06-26T07:42:25;24.60;99.90
28863;DHT22;15994;51.796;13.006;2023-06-26T07:44:51;24.70;99.90
28863;DHT22;15994;51.796;13.006;2023-06-26T07:47:18;24.70;99.90
28863;DHT22;15994;51.796;13.006;2023-06-26T07:49:44;24.70;99.90
28863;DHT22;15994;51.796;13.006;2023-06-26T07:52:11;24.80;99.90
28863;DHT22;15994;51.796;13.006;2023-06-26T07:54:37;24.90;99.90
28863;DHT22;15994;51.796;13.006;2023-06-26T07:57:04;24.90;99.90
28863;DHT22;15994;51.796;13.006;2023-06-26T07:59:32;25.00;99.90
28863;DHT22;15994;51.796;13.006;2023-06-26T08:01:59;25.10;99.90
28863;DHT22;15994;51.796;13.006;2023-06-26T08:04:27;25.20;99.90
28863;DHT22;15994;51.796;13.006;2023-06-26T08:06:55;25.30;99.90
28863;DHT22;15994;51.796;13.006;2023-06-26T08:09:23;25.40;99.90
28863;DHT22;15994;51.796;13.006;2023-06-26T08:11:49;25.40;99.90
28863;DHT22;15994;51.796;13.006;2023-06-26T08:14:16;25.30;99.90
28863;DHT22;15994;51.796;13.006;2023-06-26T08:16:43;25.50;99.90
28863;DHT22;15994;51.796;13.006;2023-06-26T08:19:10;25.60;99.90
28863;DHT22;15994;51.796;13.006;2023-06-26T08:21:37;25.70;99.90
28863;DHT22;15994;51.796;13.006;2023-06-26T08:24:04;25.80;99.90
28863;DHT22;15994;51.796;13.006;2023-06-26T08:26:30;25.90;99.90
28863;DHT22;15994;51.796;13.006;2023-06-26T08:28:57;25.90;99.90
28863;DHT22;15994;51.796;13.006;2023-06-26T08:31:23;26.00;99.90
28863;DHT22;15994;51.796;13.006;2023-06-26T08:33:50;25.90;99.90
28863;DHT22;15994;51.796;13.006;2023-06-26T08:36:16;26.00;99.90
28863;DHT22;15994;51.796;13.006;2023-06-26T08:38:43;25.90;99.90
28863;DHT22;15994;51.796;13.006;2023-06-26T08:41:09;25.90;99.90
28863;DHT22;15994;51.796;13.006;2023-06-26T08:43:36;26.10;99.90
28863;DHT22;15994;51.796;13.006;2023-06-26T08:46:02;26.30;99.90
28863;DHT22;15994;51.796;13.006;2023-06-26T08:48:32;26.00;99.90
28863;DHT22;15994;51.796;13.006;2023-06-26T08:51:00;26.10;99.90
28863;DHT22;15994;51.796;13.006;2023-06-26T08:53:38;26.30;99.90
28863;DHT22;15994;51.796;13.006;2023-06-26T08:56:06;26.30;99.90
28863;DHT22;15994;51.796;13.006;2023-06-26T08:58:33;26.30;99.90
28863;DHT22;15994;51.796;13.006;2023-06-26T09:01:01;26.50;99.90
28863;DHT22;15994;51.796;13.006;2023-06-26T09:03:28;26.40;99.90
28863;DHT22;15994;51.796;13.006;2023-06-26T09:05:55;26.10;99.90
28863;DHT22;15994;51.796;13.006;2023-06-26T09:08:22;26.30;99.90
28863;DHT22;15994;51.796;13.006;2023-06-26T09:10:48;26.40;99.90
28863;DHT22;15994;51.796;13.006;2023-06-26T09:13:15;26.10;99.90
28863;DHT22;15994;51.796;13.006;2023-06-26T09:15:42;26.60;99.90
28863;DHT22;15994;51.796;13.006;2023-06-26T09:18:09;26.70;99.90
28863;DHT22;15994;51.796;13.006;2023-06-26T09:20:35;26.80;99.90
28863;DHT22;15994;51.796;13.006;2023-06-26T09:23:02;27.00;99.90
28863;DHT22;15994;51.796;13.006;2023-06-26T09:25:29;27.10;99.90
28863;DHT22;15994;51.796;13.006;2023-06-26T09:27:56;27.50;99.90
28863;DHT22;15994;51.796;13.006;2023-06-26T09:30:22;27.60;99.90
28863;DHT22;15994;51.796;13.006;2023-06-26T09:32:49;27.80;99.90
28863;DHT22;15994;51.796;13.006;2023-06-26T09:35:16;27.60;99.90
28863;DHT22;15994;51.796;13.006;2023-06-26T09:37:42;27.70;99.90
28863;DHT22;15994;51.796;13.006;2023-06-26T09:40:09;27.70;99.90
28863;DHT22;15994;51.796;13.006;2023-06-26T09:42:35;27.40;99.90
28863;DHT22;15994;51.796;13.006;2023-06-26T09:45:02;27.50;99.90
28863;DHT22;15994;51.796;13.006;2023-06-26T09:47:32;27.60;99.90
28863;DHT22;15994;51.796;13.006;2023-06-26T09:50:02;27.80;99.90
28863;DHT22;15994;51.796;13.006;2023-06-26T09:52:28;27.90;99.90
28863;DHT22;15994;51.796;13.006;2023-06-26T09:55:08;27.60;99.90
28863;DHT22;15994;51.796;13.006;2023-06-26T09:57:34;27.90;99.90
28863;DHT22;15994;51.796;13.006;2023-06-26T10:00:02;28.00;99.90
28863;DHT22;15994;51.796;13.006;2023-06-26T10:02:30;28.20;99.90
28863;DHT22;15994;51.796;13.006;2023-06-26T10:04:56;28.00;99.90
28863;DHT22;15994;51.796;13.006;2023-06-26T10:07:23;28.10;99.90
28863;DHT22;15994;51.796;13.006;2023-06-26T10:09:50;28.20;99.90
28863;DHT22;15994;51.796;13.006;2023-06-26T10:12:19;28.30;99.90
28863;DHT22;15994;51.796;13.006;2023-06-26T10:14:47;28.30;99.90
28863;DHT22;15994;51.796;13.006;2023-06-26T10:17:17;28.40;99.90
28863;DHT22;15994;51.796;13.006;2023-06-26T10:19:45;28.40;99.90
28863;DHT22;15994;51.796;13.006;2023-06-26T10:22:12;28.50;99.90
28863;DHT22;15994;51.796;13.006;2023-06-26T10:24:40;28.50;99.90
28863;DHT22;15994;51.796;13.006;2023-06-26T10:27:08;28.50;99.90
28863;DHT22;15994;51.796;13.006;2023-06-26T10:29:37;28.60;99.90
28863;DHT22;15994;51.796;13.006;2023-06-26T10:32:04;28.40;99.90
28863;DHT22;15994;51.796;13.006;2023-06-26T10:34:30;28.40;99.90
28863;DHT22;15994;51.796;13.006;2023-06-26T10:37:01;28.60;99.90
28863;DHT22;15994;51.796;13.006;2023-06-26T10:39:51;28.70;99.90
28863;DHT22;15994;51.796;13.006;2023-06-26T10:42:16;28.20;99.90
28863;DHT22;15994;51.796;13.006;2023-06-26T10:44:44;28.80;99.90
28863;DHT22;15994;51.796;13.006;2023-06-26T10:47:12;28.80;99.90
28863;DHT22;15994;51.796;13.006;2023-06-26T10:49:38;29.10;99.90
28863;DHT22;15994;51.796;13.006;2023-06-26T10:52:13;29.10;99.90
28863;DHT22;15994;51.796;13.006;2023-06-26T10:54:39;29.40;99.90
28863;DHT22;15994;51.796;13.006;2023-06-26T10:57:05;29.30;99.90
28863;DHT22;15994;51.796;13.006;2023-06-26T10:59:33;28.80;99.90
28863;DHT22;15994;51.796;13.006;2023-06-26T11:02:00;29.30;99.90
28863;DHT22;15994;51.796;13.006;2023-06-26T11:07:21;29.40;99.90
28863;DHT22;15994;51.796;13.006;2023-06-26T11:09:59;29.30;99.90
28863;DHT22;15994;51.796;13.006;2023-06-26T11:12:39;29.80;99.90
28863;DHT22;15994;51.796;13.006;2023-06-26T11:15:10;29.90;99.90
28863;DHT22;15994;51.796;13.006;2023-06-26T11:17:37;30.00;99.90
28863;DHT22;15994;51.796;13.006;2023-06-26T11:20:05;30.00;99.90
28863;DHT22;15994;51.796;13.006;2023-06-26T11:22:36;29.80;99.90
28863;DHT22;15994;51.796;13.006;2023-06-26T11:25:03;29.90;99.90
28863;DHT22;15994;51.796;13.006;2023-06-26T11:30:03;30.20;99.90
28863;DHT22;15994;51.796;13.006;2023-06-26T11:32:30;30.30;99.90
28863;DHT22;15994;51.796;13.006;2023-06-26T11:34:58;29.90;99.90
28863;DHT22;15994;51.796;13.006;2023-06-26T11:37:25;29.60;99.90
28863;DHT22;15994;51.796;13.006;2023-06-26T11:39:51;29.40;99.90
28863;DHT22;15994;51.796;13.006;2023-06-26T11:42:18;29.40;99.90
28863;DHT22;15994;51.796;13.006;2023-06-26T11:44:46;29.60;99.90
28863;DHT22;15994;51.796;13.006;2023-06-26T11:47:21;29.70;99.90
28863;DHT22;15994;51.796;13.006;2023-06-26T11:49:48;30.10;99.90
28863;DHT22;15994;51.796;13.006;2023-06-26T11:52:15;30.10;99.90
28863;DHT22;15994;51.796;13.006;2023-06-26T11:54:42;30.30;99.90
28863;DHT22;15994;51.796;13.006;2023-06-26T11:57:12;30.20;99.90
28863;DHT22;15994;51.796;13.006;2023-06-26T11:59:39;29.90;99.90
28863;DHT22;15994;51.796;13.006;2023-06-26T12:02:06;29.40;99.90
28863;DHT22;15994;51.796;13.006;2023-06-26T12:04:34;28.90;99.90
28863;DHT22;15994;51.796;13.006;2023-06-26T12:07:01;28.90;99.90
28863;DHT22;15994;51.796;13.006;2023-06-26T12:09:29;29.60;99.90
28863;DHT22;15994;51.796;13.006;2023-06-26T12:11:55;30.00;99.90
28863;DHT22;15994;51.796;13.006;2023-06-26T12:14:23;30.20;99.90
28863;DHT22;15994;51.796;13.006;2023-06-26T12:19:17;30.70;99.90
28863;DHT22;15994;51.796;13.006;2023-06-26T12:21:50;30.60;99.90
28863;DHT22;15994;51.796;13.006;2023-06-26T12:24:18;30.70;99.90
28863;DHT22;15994;51.796;13.006;2023-06-26T12:26:46;30.40;99.90
28863;DHT22;15994;51.796;13.006;2023-06-26T12:29:14;30.30;99.90
28863;DHT22;15994;51.796;13.006;2023-06-26T12:31:43;30.50;99.90
28863;DHT22;15994;51.796;13.006;2023-06-26T12:34:10;30.60;99.90
28863;DHT22;15994;51.796;13.006;2023-06-26T12:36:41;30.90;99.90
28863;DHT22;15994;51.796;13.006;2023-06-26T12:39:09;30.60;99.90
28863;DHT22;15994;51.796;13.006;2023-06-26T12:41:43;31.20;99.90
28863;DHT22;15994;51.796;13.006;2023-06-26T12:44:16;31.20;99.90
28863;DHT22;15994;51.796;13.006;2023-06-26T12:46:43;31.40;99.90
28863;DHT22;15994;51.796;13.006;2023-06-26T12:49:11;31.20;99.90
28863;DHT22;15994;51.796;13.006;2023-06-26T12:51:38;30.80;99.90
28863;DHT22;15994;51.796;13.006;2023-06-26T12:54:05;30.70;99.90
28863;DHT22;15994;51.796;13.006;2023-06-26T12:56:32;30.50;99.90
28863;DHT22;15994;51.796;13.006;2023-06-26T12:58:58;30.50;99.90
28863;DHT22;15994;51.796;13.006;2023-06-26T13:01:26;30.80;99.90
28863;DHT22;15994;51.796;13.006;2023-06-26T13:03:53;30.90;99.90
28863;DHT22;15994;51.796;13.006;2023-06-26T13:06:20;30.60;99.90
28863;DHT22;15994;51.796;13.006;2023-06-26T13:08:46;30.50;99.90
28863;DHT22;15994;51.796;13.006;2023-06-26T13:11:13;30.60;99.90
28863;DHT22;15994;51.796;13.006;2023-06-26T13:13:42;30.70;99.90
28863;DHT22;15994;51.796;13.006;2023-06-26T13:16:08;30.70;99.90
28863;DHT22;15994;51.796;13.006;2023-06-26T13:18:34;30.70;99.90
28863;DHT22;15994;51.796;13.006;2023-06-26T13:21:01;31.00;99.90
28863;DHT22;15994;51.796;13.006;2023-06-26T13:23:27;31.20;99.90
28863;DHT22;15994;51.796;13.006;2023-06-26T13:25:54;30.50;99.90
28863;DHT22;15994;51.796;13.006;2023-06-26T13:28:20;30.50;99.90
28863;DHT22;15994;51.796;13.006;2023-06-26T13:30:47;30.90;99.90
28863;DHT22;15994;51.796;13.006;2023-06-26T13:33:13;30.70;99.90
28863;DHT22;15994;51.796;13.006;2023-06-26T13:35:39;30.60;99.90
28863;DHT22;15994;51.796;13.006;2023-06-26T13:38:06;30.60;99.90
28863;DHT22;15994;51.796;13.006;2023-06-26T13:40:32;30.80;99.90
28863;DHT22;15994;51.796;13.006;2023-06-26T13:42:59;31.00;99.90
28863;DHT22;15994;51.796;13.006;2023-06-26T13:45:25;31.10;99.90
28863;DHT22;15994;51.796;13.006;2023-06-26T13:47:52;31.00;99.90
28863;DHT22;15994;51.796;13.006;2023-06-26T13:50:18;30.90;99.90
28863;DHT22;15994;51.796;13.006;2023-06-26T13:52:45;30.60;99.90
28863;DHT22;15994;51.796;13.006;2023-06-26T13:55:11;30.70;99.90
28863;DHT22;15994;51.796;13.006;2023-06-26T13:57:38;30.60;99.90
28863;DHT22;15994;51.796;13.006;2023-06-26T14:00:07;30.80;99.90
28863;DHT22;15994;51.796;13.006;2023-06-26T14:02:33;30.80;99.90
28863;DHT22;15994;51.796;13.006;2023-06-26T14:05:00;30.60;99.90
28863;DHT22;15994;51.796;13.006;2023-06-26T14:07:26;31.10;99.90
28863;DHT22;15994;51.796;13.006;2023-06-26T14:09:53;30.80;99.90
28863;DHT22;15994;51.796;13.006;2023-06-26T14:12:19;30.20;99.90
28863;DHT22;15994;51.796;13.006;2023-06-26T14:14:46;30.00;99.90
28863;DHT22;15994;51.796;13.006;2023-06-26T14:17:12;29.80;99.90
28863;DHT22;15994;51.796;13.006;2023-06-26T14:19:41;29.20;99.90
28863;DHT22;15994;51.796;13.006;2023-06-26T14:22:07;29.00;99.90
28863;DHT22;15994;51.796;13.006;2023-06-26T14:24:34;29.20;99.90
28863;DHT22;15994;51.796;13.006;2023-06-26T14:27:00;28.80;99.90
28863;DHT22;15994;51.796;13.006;2023-06-26T14:29:26;28.20;99.90
28863;DHT22;15994;51.796;13.006;2023-06-26T14:31:53;27.70;99.90
28863;DHT22;15994;51.796;13.006;2023-06-26T14:34:19;27.40;99.90
28863;DHT22;15994;51.796;13.006;2023-06-26T14:36:46;27.40;99.90
28863;DHT22;15994;51.796;13.006;2023-06-26T14:39:12;27.10;99.90
28863;DHT22;15994;51.796;13.006;2023-06-26T14:41:39;26.90;99.90
28863;DHT22;15994;51.796;13.006;2023-06-26T14:44:05;26.90;99.90
28863;DHT22;15994;51.796;13.006;2023-06-26T14:46:35;26.70;99.90
28863;DHT22;15994;51.796;13.006;2023-06-26T14:49:01;26.30;99.90
28863;DHT22;15994;51.796;13.006;2023-06-26T14:51:28;25.90;99.90
28863;DHT22;15994;51.796;13.006;2023-06-26T14:53:54;25.60;99.90
28863;DHT22;15994;51.796;13.006;2023-06-26T14:56:20;25.50;99.90
28863;DHT22;15994;51.796;13.006;2023-06-26T14:58:47;25.40;99.90
28863;DHT22;15994;51.796;13.006;2023-06-26T15:01:13;25.30;99.90
28863;DHT22;15994;51.796;13.006;2023-06-26T15:03:40;25.30;99.90
28863;DHT22;15994;51.796;13.006;2023-06-26T15:06:07;25.10;99.90
28863;DHT22;15994;51.796;13.006;2023-06-26T15:08:34;25.20;99.90
28863;DHT22;15994;51.796;13.006;2023-06-26T15:11:01;25.40;99.90
28863;DHT22;15994;51.796;13.006;2023-06-26T15:13:28;25.50;99.90
28863;DHT22;15994;51.796;13.006;2023-06-26T15:15:54;25.80;99.90
28863;DHT22;15994;51.796;13.006;2023-06-26T15:18:20;25.60;99.90
28863;DHT22;15994;51.796;13.006;2023-06-26T15:20:47;25.60;99.90
28863;DHT22;15994;51.796;13.006;2023-06-26T15:23:13;25.50;99.90
28863;DHT22;15994;51.796;13.006;2023-06-26T15:25:40;25.10;99.90
28863;DHT22;15994;51.796;13.006;2023-06-26T15:28:06;25.30;99.90